createdAt,value
2022-08-12T00:00:20.726Z,21.70
2022-08-12T00:05:39.700Z,21.60
2022-08-12T00:11:16.432Z,21.40
2022-08-12T00:16:32.128Z,21.40
2022-08-12T00:21:48.561Z,21.40
2022-08-12T00:27:06.171Z,21.40
2022-08-12T00:32:35.817Z,21.40
2022-08-12T00:37:52.612Z,21.50
2022-08-12T00:42:51.533Z,21.40
2022-08-12T00:47:51.822Z,21.40
2022-08-12T00:52:52.677Z,21.30
2022-08-12T00:57:51.628Z,21.20
2022-08-12T01:02:52.488Z,21.10
2022-08-12T01:08:10.134Z,21.10
2022-08-12T01:13:19.722Z,20.90
2022-08-12T01:18:23.445Z,20.90
2022-08-12T01:23:45.659Z,20.80
2022-08-12T01:28:44.957Z,20.70
2022-08-12T01:33:59.960Z,20.40
2022-08-12T01:38:59.983Z,19.90
2022-08-12T01:44:04.163Z,19.60
2022-08-12T01:49:16.329Z,19.40
2022-08-12T01:54:20.108Z,19.30
2022-08-12T01:59:47.129Z,19.00
2022-08-12T02:05:55.339Z,18.90
2022-08-12T02:11:23.183Z,18.70
2022-08-12T02:16:36.557Z,18.60
2022-08-12T02:21:46.684Z,18.30
2022-08-12T02:26:47.489Z,18.10
2022-08-12T02:31:48.379Z,18.00
2022-08-12T02:36:46.961Z,17.90
2022-08-12T02:41:47.333Z,17.80
2022-08-12T02:46:50.398Z,17.80
2022-08-12T02:51:48.403Z,17.90
2022-08-12T02:56:50.651Z,18.00
2022-08-12T03:01:51.298Z,18.00
2022-08-12T03:07:01.398Z,17.90
2022-08-12T03:12:07.993Z,17.70
2022-08-12T03:17:18.393Z,17.50
2022-08-12T03:22:18.933Z,17.30
2022-08-12T03:27:17.254Z,17.10
2022-08-12T03:32:36.009Z,17.00
2022-08-12T03:37:35.637Z,16.90
2022-08-12T03:42:41.827Z,16.90
2022-08-12T03:48:10.029Z,16.50
2022-08-12T03:53:27.705Z,16.50
2022-08-12T03:58:44.985Z,16.60
2022-08-12T04:03:54.952Z,16.70
2022-08-12T04:08:54.078Z,16.70
2022-08-12T04:13:51.640Z,16.80
2022-08-12T04:18:49.068Z,16.70
2022-08-12T04:23:48.670Z,16.60
2022-08-12T04:28:46.125Z,16.70
2022-08-12T04:33:44.352Z,16.50
2022-08-12T04:38:43.700Z,16.70
2022-08-12T04:43:59.791Z,16.80
2022-08-12T04:49:00.439Z,16.90
2022-08-12T04:53:58.154Z,17.20
2022-08-12T04:58:59.612Z,17.20
2022-08-12T05:03:58.235Z,17.20
2022-08-12T05:08:56.780Z,17.10
2022-08-12T05:14:00.555Z,17.10
2022-08-12T05:18:58.901Z,17.20
2022-08-12T05:23:56.982Z,17.20
2022-08-12T05:28:57.258Z,17.10
2022-08-12T05:33:54.520Z,16.90
2022-08-12T05:38:57.900Z,16.90
2022-08-12T05:44:03.875Z,17.00
2022-08-12T05:49:02.160Z,17.10
2022-08-12T05:54:00.362Z,17.20
2022-08-12T05:58:59.593Z,17.40
2022-08-12T06:03:57.269Z,17.50
2022-08-12T06:08:55.818Z,17.40
2022-08-12T06:13:58.713Z,17.40
2022-08-12T06:18:55.900Z,17.60
2022-08-12T06:23:53.470Z,18.10
2022-08-12T06:28:51.469Z,18.40
2022-08-12T06:33:54.973Z,18.60
2022-08-12T06:38:53.790Z,19.60
2022-08-12T06:44:06.688Z,19.90
2022-08-12T06:49:04.984Z,19.30
2022-08-12T06:54:02.604Z,19.10
2022-08-12T06:59:02.109Z,20.10
2022-08-12T07:04:14.234Z,23.20
2022-08-12T07:10:05.057Z,22.70
2022-08-12T07:14:40.110Z,20.70
2022-08-12T07:19:40.694Z,20.80
2022-08-12T07:24:42.860Z,23.40
2022-08-12T07:30:02.787Z,26.30
2022-08-12T07:34:57.405Z,27.60
2022-08-12T07:39:59.476Z,28.70
2022-08-12T07:44:59.328Z,28.80
2022-08-12T07:50:04.589Z,28.10
2022-08-12T07:55:04.580Z,28.60
2022-08-12T08:00:06.082Z,29.30
2022-08-12T08:05:04.660Z,28.60
2022-08-12T08:10:05.641Z,29.30
2022-08-12T08:15:02.999Z,27.80
2022-08-12T08:20:02.903Z,26.60
2022-08-12T08:25:02.649Z,25.80
2022-08-12T08:30:00.190Z,25.30
2022-08-12T08:34:57.549Z,24.50
2022-08-12T08:40:15.789Z,23.60
2022-08-12T08:45:13.232Z,23.50
2022-08-12T08:50:10.920Z,26.00
2022-08-12T08:55:10.270Z,27.70
2022-08-12T09:00:12.185Z,27.70
2022-08-12T09:05:22.471Z,27.50
2022-08-12T09:10:30.886Z,25.90
2022-08-12T09:15:35.797Z,25.10
2022-08-12T09:20:35.828Z,24.20
2022-08-12T09:25:35.621Z,23.70
2022-08-12T09:30:41.644Z,25.20
2022-08-12T09:35:44.472Z,26.60
2022-08-12T09:41:02.280Z,26.70
2022-08-12T09:46:11.713Z,25.20
2022-08-12T09:51:22.489Z,26.60
2022-08-12T09:56:58.401Z,27.00
2022-08-12T10:02:42.618Z,27.00
2022-08-12T10:06:57.731Z,27.50
2022-08-12T10:12:14.145Z,27.80
2022-08-12T10:17:12.570Z,27.40
2022-08-12T10:22:17.159Z,27.00
2022-08-12T10:28:04.252Z,27.10
2022-08-12T10:33:03.409Z,26.40
2022-08-12T10:38:38.003Z,26.40
2022-08-12T10:43:55.542Z,26.10
2022-08-12T10:48:58.526Z,24.60
2022-08-12T10:54:04.672Z,24.30
2022-08-12T10:59:10.807Z,24.40
2022-08-12T11:04:35.892Z,24.30
2022-08-12T11:09:54.218Z,24.80
2022-08-12T11:14:51.373Z,24.10
2022-08-12T11:19:49.001Z,24.00
2022-08-12T11:24:51.483Z,24.00
2022-08-12T11:30:06.008Z,24.40
2022-08-12T11:35:04.749Z,24.90
2022-08-12T11:40:03.702Z,24.70
2022-08-12T11:45:01.125Z,24.00
2022-08-12T11:49:58.455Z,23.60
2022-08-12T11:54:55.839Z,23.20
2022-08-12T12:05:11.844Z,23.10
2022-08-12T12:10:13.782Z,23.30
2022-08-12T12:15:12.438Z,23.60
2022-08-12T12:20:11.840Z,23.80
2022-08-12T12:25:13.814Z,24.00
2022-08-12T12:30:17.509Z,23.90
2022-08-12T12:36:06.172Z,24.30
2022-08-12T12:40:45.365Z,24.30
2022-08-12T12:45:46.546Z,24.00
2022-08-12T12:51:13.746Z,23.70
2022-08-12T12:56:33.902Z,23.60
2022-08-12T13:01:38.215Z,23.10
2022-08-12T13:06:42.151Z,22.40
2022-08-12T13:11:44.605Z,22.10
2022-08-12T13:16:44.569Z,21.60
2022-08-12T13:22:02.134Z,21.20
2022-08-12T13:27:01.695Z,20.00
2022-08-12T13:32:19.041Z,19.40
2022-08-12T13:37:26.508Z,19.00
2022-08-12T13:42:23.944Z,18.40
2022-08-12T13:47:25.307Z,18.20
2022-08-12T13:52:25.705Z,18.10
2022-08-12T13:57:23.209Z,18.00
2022-08-12T14:02:24.373Z,17.90
2022-08-12T14:07:21.879Z,18.10
2022-08-12T14:12:20.416Z,17.70
2022-08-12T14:17:22.637Z,17.50
2022-08-12T14:22:20.395Z,17.00
2022-08-12T14:28:02.864Z,17.00
2022-08-12T14:32:36.042Z,17.00
2022-08-12T14:37:57.511Z,17.20
2022-08-12T14:42:50.732Z,17.50
2022-08-12T14:47:58.381Z,17.30
2022-08-12T14:58:13.929Z,17.50
2022-08-12T15:03:11.653Z,17.40
2022-08-12T15:08:22.452Z,17.20
2022-08-12T15:13:21.264Z,17.20
2022-08-12T15:18:25.587Z,17.30
2022-08-12T15:23:29.037Z,17.30
2022-08-12T15:28:33.972Z,17.60
2022-08-12T15:33:45.352Z,17.60
2022-08-12T15:38:43.763Z,17.70
2022-08-12T15:44:15.670Z,17.90
2022-08-12T15:49:00.323Z,18.00
2022-08-12T15:54:34.160Z,18.10
2022-08-12T15:59:51.159Z,18.10
2022-08-12T16:04:44.968Z,18.10
2022-08-12T16:10:06.210Z,17.90
2022-08-12T16:15:04.896Z,17.90
2022-08-12T16:20:05.710Z,17.80
2022-08-12T16:25:04.131Z,17.60
2022-08-12T16:30:02.807Z,17.40
2022-08-12T16:35:01.480Z,17.60
2022-08-12T16:40:04.627Z,17.60
2022-08-12T16:45:03.894Z,17.50
2022-08-12T16:50:08.050Z,17.50
2022-08-12T16:55:13.051Z,17.40
2022-08-12T17:00:17.182Z,17.40
2022-08-12T17:05:17.863Z,17.20
2022-08-12T17:10:35.596Z,17.40
2022-08-12T17:15:57.003Z,17.70
2022-08-12T17:20:56.552Z,17.70
2022-08-12T17:25:59.292Z,17.70
2022-08-12T17:31:01.784Z,17.70
2022-08-12T17:36:01.577Z,17.60
2022-08-12T17:40:59.003Z,17.50
2022-08-12T17:46:13.001Z,17.60
2022-08-12T17:51:16.483Z,17.70
2022-08-12T17:56:14.792Z,17.60
2022-08-12T18:01:17.883Z,17.40
2022-08-12T18:06:15.543Z,17.10
2022-08-12T18:12:03.213Z,17.00
2022-08-12T18:16:50.597Z,16.90
2022-08-12T18:22:01.965Z,16.90
2022-08-12T18:27:01.410Z,16.80
2022-08-12T18:32:34.765Z,16.80
2022-08-12T18:37:42.589Z,16.70
2022-08-12T18:42:41.359Z,16.70
2022-08-12T18:47:52.999Z,16.70
2022-08-12T18:52:52.531Z,16.50
2022-08-12T18:58:08.163Z,16.40
2022-08-12T19:03:09.245Z,16.10
2022-08-12T19:08:26.678Z,16.30
2022-08-12T19:13:43.699Z,16.40
2022-08-12T19:18:44.505Z,16.30
2022-08-12T19:23:42.570Z,16.30
2022-08-12T19:28:40.580Z,16.20
2022-08-12T19:33:39.633Z,16.10
2022-08-12T19:38:56.882Z,16.00
2022-08-12T19:44:00.565Z,15.80
2022-08-12T19:49:15.846Z,15.70
2022-08-12T19:54:22.846Z,15.90
2022-08-12T19:59:43.599Z,15.70
2022-08-12T20:06:03.840Z,15.80
2022-08-12T20:10:22.007Z,15.80
2022-08-12T20:15:22.248Z,15.70
2022-08-12T20:20:28.233Z,15.70
2022-08-12T20:25:28.161Z,15.70
2022-08-12T20:30:56.235Z,15.80
2022-08-12T20:36:13.424Z,15.70
2022-08-12T20:41:16.521Z,15.50
2022-08-12T20:46:17.705Z,15.40
2022-08-12T20:51:18.972Z,15.40
2022-08-12T20:56:30.819Z,15.00
2022-08-12T21:01:46.684Z,14.90
2022-08-12T21:07:08.476Z,15.10
2022-08-12T21:12:31.733Z,15.20
2022-08-12T21:17:33.980Z,15.30
2022-08-12T21:22:46.031Z,15.20
2022-08-12T21:27:59.446Z,15.10
2022-08-12T21:32:58.509Z,15.00
2022-08-12T21:37:57.938Z,14.80
2022-08-12T21:42:55.196Z,14.80
2022-08-12T21:47:53.216Z,14.90
2022-08-12T21:52:51.059Z,15.00
2022-08-12T21:57:54.405Z,14.90
2022-08-12T22:03:11.316Z,14.90
2022-08-12T22:08:14.495Z,15.00
2022-08-12T22:14:03.038Z,15.00
2022-08-12T22:18:29.941Z,15.00
2022-08-12T22:23:28.360Z,15.00
2022-08-12T22:29:04.326Z,14.90
2022-08-12T22:34:02.779Z,14.90
2022-08-12T22:39:00.621Z,14.80
2022-08-12T22:44:17.012Z,14.80
2022-08-12T22:49:14.193Z,14.70
2022-08-12T22:54:35.886Z,14.70
2022-08-12T22:59:51.237Z,14.50
2022-08-12T23:04:50.500Z,14.40
2022-08-12T23:09:48.971Z,14.30
2022-08-12T23:14:48.718Z,14.30
2022-08-12T23:19:46.048Z,14.30
2022-08-12T23:24:55.905Z,14.40
2022-08-12T23:30:17.626Z,14.20
2022-08-12T23:35:18.639Z,14.20
2022-08-12T23:40:22.311Z,14.20
2022-08-12T23:45:31.460Z,14.00
2022-08-12T23:50:35.068Z,14.10
2022-08-12T23:55:40.694Z,13.90
